sensor_id;sensor_type;location;lat;lon;timestamp;P1;durP1;ratioP1;P2;durP2;ratioP2
69305;SDS011;56427;51.580;4.656;2023-03-01T00:02:19;13.10;;;7.82;;
69305;SDS011;56427;51.580;4.656;2023-03-01T00:04:44;13.43;;;7.83;;
69305;SDS011;56427;51.580;4.656;2023-03-01T00:07:10;10.27;;;6.60;;
69305;SDS011;56427;51.580;4.656;2023-03-01T00:09:35;12.93;;;7.27;;
69305;SDS011;56427;51.580;4.656;2023-03-01T00:12:02;12.50;;;8.05;;
69305;SDS011;56427;51.580;4.656;2023-03-01T00:14:28;12.35;;;7.88;;
69305;SDS011;56427;51.580;4.656;2023-03-01T00:16:53;13.03;;;7.80;;
69305;SDS011;56427;51.580;4.656;2023-03-01T00:19:19;12.83;;;8.87;;
69305;SDS011;56427;51.580;4.656;2023-03-01T00:21:46;13.63;;;7.50;;
69305;SDS011;56427;51.580;4.656;2023-03-01T00:24:13;13.98;;;8.75;;
69305;SDS011;56427;51.580;4.656;2023-03-01T00:26:38;14.43;;;8.63;;
69305;SDS011;56427;51.580;4.656;2023-03-01T00:29:03;13.00;;;8.20;;
69305;SDS011;56427;51.580;4.656;2023-03-01T00:31:30;14.10;;;8.50;;
69305;SDS011;56427;51.580;4.656;2023-03-01T00:33:57;14.07;;;7.68;;
69305;SDS011;56427;51.580;4.656;2023-03-01T00:36:26;12.50;;;8.02;;
69305;SDS011;56427;51.580;4.656;2023-03-01T00:38:53;12.65;;;7.18;;
69305;SDS011;56427;51.580;4.656;2023-03-01T00:41:19;13.17;;;7.80;;
69305;SDS011;56427;51.580;4.656;2023-03-01T00:43:47;18.02;;;8.80;;
69305;SDS011;56427;51.580;4.656;2023-03-01T00:46:15;11.48;;;7.45;;
69305;SDS011;56427;51.580;4.656;2023-03-01T00:48:42;13.68;;;9.23;;
69305;SDS011;56427;51.580;4.656;2023-03-01T00:51:09;13.33;;;8.63;;
69305;SDS011;56427;51.580;4.656;2023-03-01T00:53:39;13.27;;;8.68;;
69305;SDS011;56427;51.580;4.656;2023-03-01T00:56:05;11.40;;;7.90;;
69305;SDS011;56427;51.580;4.656;2023-03-01T00:58:32;14.10;;;7.90;;
69305;SDS011;56427;51.580;4.656;2023-03-01T01:00:58;14.55;;;8.20;;
69305;SDS011;56427;51.580;4.656;2023-03-01T01:03:24;10.97;;;5.70;;
69305;SDS011;56427;51.580;4.656;2023-03-01T01:05:49;13.38;;;7.13;;
69305;SDS011;56427;51.580;4.656;2023-03-01T01:08:16;13.53;;;8.10;;
69305;SDS011;56427;51.580;4.656;2023-03-01T01:10:43;14.15;;;8.60;;
69305;SDS011;56427;51.580;4.656;2023-03-01T01:13:08;13.52;;;8.05;;
69305;SDS011;56427;51.580;4.656;2023-03-01T01:15:34;14.73;;;9.10;;
69305;SDS011;56427;51.580;4.656;2023-03-01T01:18:00;13.70;;;7.68;;
69305;SDS011;56427;51.580;4.656;2023-03-01T01:20:25;14.73;;;7.80;;
69305;SDS011;56427;51.580;4.656;2023-03-01T01:22:51;15.20;;;9.05;;
69305;SDS011;56427;51.580;4.656;2023-03-01T01:25:17;14.43;;;8.70;;
69305;SDS011;56427;51.580;4.656;2023-03-01T01:27:42;13.13;;;8.02;;
69305;SDS011;56427;51.580;4.656;2023-03-01T01:30:08;13.50;;;8.00;;
69305;SDS011;56427;51.580;4.656;2023-03-01T01:32:34;14.05;;;8.52;;
69305;SDS011;56427;51.580;4.656;2023-03-01T01:34:59;12.83;;;7.77;;
69305;SDS011;56427;51.580;4.656;2023-03-01T01:37:24;18.17;;;6.97;;
69305;SDS011;56427;51.580;4.656;2023-03-01T01:39:56;13.07;;;8.40;;
69305;SDS011;56427;51.580;4.656;2023-03-01T01:42:23;13.43;;;8.40;;
69305;SDS011;56427;51.580;4.656;2023-03-01T01:44:48;13.10;;;8.85;;
69305;SDS011;56427;51.580;4.656;2023-03-01T01:47:52;16.97;;;8.30;;
69305;SDS011;56427;51.580;4.656;2023-03-01T01:50:20;13.65;;;8.88;;
69305;SDS011;56427;51.580;4.656;2023-03-01T01:52:47;16.55;;;8.93;;
69305;SDS011;56427;51.580;4.656;2023-03-01T01:55:16;15.48;;;7.43;;
69305;SDS011;56427;51.580;4.656;2023-03-01T01:57:51;15.45;;;7.20;;
69305;SDS011;56427;51.580;4.656;2023-03-01T02:00:24;10.67;;;5.87;;
69305;SDS011;56427;51.580;4.656;2023-03-01T02:02:52;20.20;;;9.50;;
69305;SDS011;56427;51.580;4.656;2023-03-01T02:05:26;16.83;;;10.30;;
69305;SDS011;56427;51.580;4.656;2023-03-01T02:07:59;17.75;;;9.38;;
69305;SDS011;56427;51.580;4.656;2023-03-01T02:10:25;18.40;;;10.40;;
69305;SDS011;56427;51.580;4.656;2023-03-01T02:12:52;16.95;;;9.98;;
69305;SDS011;56427;51.580;4.656;2023-03-01T02:15:21;16.58;;;9.82;;
69305;SDS011;56427;51.580;4.656;2023-03-01T02:17:47;16.05;;;9.40;;
69305;SDS011;56427;51.580;4.656;2023-03-01T02:20:19;15.10;;;9.47;;
69305;SDS011;56427;51.580;4.656;2023-03-01T02:22:55;17.50;;;10.30;;
69305;SDS011;56427;51.580;4.656;2023-03-01T02:30:41;15.57;;;9.43;;
69305;SDS011;56427;51.580;4.656;2023-03-01T02:33:29;17.88;;;8.60;;
69305;SDS011;56427;51.580;4.656;2023-03-01T02:35:57;15.73;;;7.82;;
69305;SDS011;56427;51.580;4.656;2023-03-01T02:38:25;19.75;;;8.60;;
69305;SDS011;56427;51.580;4.656;2023-03-01T02:40:51;17.80;;;10.43;;
69305;SDS011;56427;51.580;4.656;2023-03-01T02:43:17;16.48;;;9.13;;
69305;SDS011;56427;51.580;4.656;2023-03-01T02:45:49;19.00;;;9.90;;
69305;SDS011;56427;51.580;4.656;2023-03-01T02:48:16;20.48;;;10.73;;
69305;SDS011;56427;51.580;4.656;2023-03-01T02:51:24;16.57;;;7.50;;
69305;SDS011;56427;51.580;4.656;2023-03-01T02:56:20;17.63;;;10.32;;
69305;SDS011;56427;51.580;4.656;2023-03-01T02:58:45;16.23;;;9.77;;
69305;SDS011;56427;51.580;4.656;2023-03-01T03:01:13;20.17;;;10.48;;
69305;SDS011;56427;51.580;4.656;2023-03-01T03:03:40;20.00;;;11.38;;
69305;SDS011;56427;51.580;4.656;2023-03-01T03:06:06;17.75;;;10.38;;
69305;SDS011;56427;51.580;4.656;2023-03-01T03:08:31;19.23;;;11.07;;
69305;SDS011;56427;51.580;4.656;2023-03-01T03:10:57;19.03;;;10.07;;
69305;SDS011;56427;51.580;4.656;2023-03-01T03:13:22;21.02;;;11.63;;
69305;SDS011;56427;51.580;4.656;2023-03-01T03:15:53;16.98;;;9.23;;
69305;SDS011;56427;51.580;4.656;2023-03-01T03:18:20;15.20;;;8.88;;
69305;SDS011;56427;51.580;4.656;2023-03-01T03:20:46;19.42;;;9.65;;
69305;SDS011;56427;51.580;4.656;2023-03-01T03:23:11;17.43;;;10.70;;
69305;SDS011;56427;51.580;4.656;2023-03-01T03:25:38;17.50;;;9.10;;
69305;SDS011;56427;51.580;4.656;2023-03-01T03:28:06;14.80;;;8.45;;
69305;SDS011;56427;51.580;4.656;2023-03-01T03:30:36;15.57;;;8.50;;
69305;SDS011;56427;51.580;4.656;2023-03-01T03:33:04;10.52;;;6.70;;
69305;SDS011;56427;51.580;4.656;2023-03-01T03:35:34;17.45;;;9.45;;
69305;SDS011;56427;51.580;4.656;2023-03-01T03:38:05;17.23;;;8.20;;
69305;SDS011;56427;51.580;4.656;2023-03-01T03:40:40;16.33;;;8.07;;
69305;SDS011;56427;51.580;4.656;2023-03-01T03:43:08;19.33;;;8.97;;
69305;SDS011;56427;51.580;4.656;2023-03-01T03:45:35;15.55;;;8.60;;
69305;SDS011;56427;51.580;4.656;2023-03-01T03:48:02;16.17;;;9.20;;
69305;SDS011;56427;51.580;4.656;2023-03-01T03:50:29;16.48;;;9.40;;
69305;SDS011;56427;51.580;4.656;2023-03-01T03:52:55;20.70;;;9.60;;
69305;SDS011;56427;51.580;4.656;2023-03-01T03:55:20;15.90;;;9.70;;
69305;SDS011;56427;51.580;4.656;2023-03-01T03:57:46;11.97;;;7.37;;
69305;SDS011;56427;51.580;4.656;2023-03-01T04:00:17;15.90;;;8.77;;
69305;SDS011;56427;51.580;4.656;2023-03-01T04:02:44;16.48;;;9.13;;
69305;SDS011;56427;51.580;4.656;2023-03-01T04:05:12;18.92;;;10.10;;
69305;SDS011;56427;51.580;4.656;2023-03-01T04:07:39;13.57;;;6.67;;
69305;SDS011;56427;51.580;4.656;2023-03-01T04:10:07;17.55;;;10.20;;
69305;SDS011;56427;51.580;4.656;2023-03-01T04:12:34;15.60;;;9.55;;
69305;SDS011;56427;51.580;4.656;2023-03-01T04:15:00;15.90;;;8.87;;
69305;SDS011;56427;51.580;4.656;2023-03-01T04:17:26;14.70;;;9.00;;
69305;SDS011;56427;51.580;4.656;2023-03-01T04:19:52;15.30;;;9.23;;
69305;SDS011;56427;51.580;4.656;2023-03-01T04:22:18;19.83;;;9.60;;
69305;SDS011;56427;51.580;4.656;2023-03-01T04:24:44;17.98;;;10.25;;
69305;SDS011;56427;51.580;4.656;2023-03-01T04:27:10;16.17;;;9.80;;
69305;SDS011;56427;51.580;4.656;2023-03-01T04:29:36;19.17;;;10.07;;
69305;SDS011;56427;51.580;4.656;2023-03-01T04:32:01;18.23;;;10.20;;
69305;SDS011;56427;51.580;4.656;2023-03-01T04:34:28;15.38;;;9.25;;
69305;SDS011;56427;51.580;4.656;2023-03-01T04:36:54;21.10;;;11.23;;
69305;SDS011;56427;51.580;4.656;2023-03-01T04:39:19;18.10;;;10.10;;
69305;SDS011;56427;51.580;4.656;2023-03-01T04:41:45;18.23;;;10.73;;
69305;SDS011;56427;51.580;4.656;2023-03-01T04:44:10;17.67;;;10.45;;
69305;SDS011;56427;51.580;4.656;2023-03-01T04:46:36;21.83;;;11.40;;
69305;SDS011;56427;51.580;4.656;2023-03-01T04:49:02;20.77;;;11.67;;
69305;SDS011;56427;51.580;4.656;2023-03-01T04:51:28;19.23;;;10.55;;
69305;SDS011;56427;51.580;4.656;2023-03-01T04:53:53;18.55;;;9.63;;
69305;SDS011;56427;51.580;4.656;2023-03-01T04:56:19;19.30;;;11.00;;
69305;SDS011;56427;51.580;4.656;2023-03-01T04:58:44;17.23;;;9.87;;
69305;SDS011;56427;51.580;4.656;2023-03-01T05:01:15;16.63;;;9.32;;
69305;SDS011;56427;51.580;4.656;2023-03-01T05:03:46;18.60;;;9.02;;
69305;SDS011;56427;51.580;4.656;2023-03-01T05:06:13;16.40;;;9.57;;
69305;SDS011;56427;51.580;4.656;2023-03-01T05:08:39;17.27;;;9.77;;
69305;SDS011;56427;51.580;4.656;2023-03-01T05:11:05;18.80;;;10.50;;
69305;SDS011;56427;51.580;4.656;2023-03-01T05:13:33;15.37;;;8.60;;
69305;SDS011;56427;51.580;4.656;2023-03-01T05:16:00;14.57;;;8.77;;
69305;SDS011;56427;51.580;4.656;2023-03-01T05:18:27;15.38;;;8.90;;
69305;SDS011;56427;51.580;4.656;2023-03-01T05:20:55;15.88;;;8.82;;
69305;SDS011;56427;51.580;4.656;2023-03-01T05:23:29;17.05;;;9.23;;
69305;SDS011;56427;51.580;4.656;2023-03-01T05:25:57;17.13;;;9.57;;
69305;SDS011;56427;51.580;4.656;2023-03-01T05:28:24;14.50;;;8.10;;
69305;SDS011;56427;51.580;4.656;2023-03-01T05:30:50;18.00;;;8.95;;
69305;SDS011;56427;51.580;4.656;2023-03-01T05:33:16;16.00;;;8.30;;
69305;SDS011;56427;51.580;4.656;2023-03-01T05:35:47;14.13;;;8.07;;
69305;SDS011;56427;51.580;4.656;2023-03-01T05:38:13;15.37;;;8.10;;
69305;SDS011;56427;51.580;4.656;2023-03-01T05:40:40;12.65;;;7.90;;
69305;SDS011;56427;51.580;4.656;2023-03-01T05:43:10;14.27;;;8.35;;
69305;SDS011;56427;51.580;4.656;2023-03-01T05:45:39;14.15;;;7.07;;
69305;SDS011;56427;51.580;4.656;2023-03-01T05:48:05;13.55;;;7.85;;
69305;SDS011;56427;51.580;4.656;2023-03-01T05:50:33;14.37;;;7.67;;
69305;SDS011;56427;51.580;4.656;2023-03-01T05:53:04;13.15;;;7.45;;
69305;SDS011;56427;51.580;4.656;2023-03-01T05:55:51;11.73;;;6.75;;
69305;SDS011;56427;51.580;4.656;2023-03-01T05:58:18;13.30;;;7.35;;
69305;SDS011;56427;51.580;4.656;2023-03-01T06:00:48;14.70;;;7.78;;
69305;SDS011;56427;51.580;4.656;2023-03-01T06:03:14;17.80;;;8.20;;
69305;SDS011;56427;51.580;4.656;2023-03-01T06:05:41;14.57;;;7.63;;
69305;SDS011;56427;51.580;4.656;2023-03-01T06:08:08;13.02;;;8.02;;
69305;SDS011;56427;51.580;4.656;2023-03-01T06:10:34;13.13;;;7.77;;
69305;SDS011;56427;51.580;4.656;2023-03-01T06:13:00;13.52;;;7.53;;
69305;SDS011;56427;51.580;4.656;2023-03-01T06:15:26;14.73;;;8.07;;
69305;SDS011;56427;51.580;4.656;2023-03-01T06:17:51;14.70;;;8.23;;
69305;SDS011;56427;51.580;4.656;2023-03-01T06:20:30;15.38;;;7.75;;
69305;SDS011;56427;51.580;4.656;2023-03-01T06:22:56;14.60;;;8.57;;
69305;SDS011;56427;51.580;4.656;2023-03-01T06:25:22;15.73;;;7.97;;
69305;SDS011;56427;51.580;4.656;2023-03-01T06:27:52;13.38;;;7.47;;
69305;SDS011;56427;51.580;4.656;2023-03-01T06:30:18;12.37;;;7.33;;
69305;SDS011;56427;51.580;4.656;2023-03-01T06:32:44;13.55;;;7.65;;
69305;SDS011;56427;51.580;4.656;2023-03-01T06:35:10;13.43;;;7.73;;
69305;SDS011;56427;51.580;4.656;2023-03-01T06:37:37;13.55;;;7.63;;
69305;SDS011;56427;51.580;4.656;2023-03-01T06:40:04;12.23;;;7.28;;
69305;SDS011;56427;51.580;4.656;2023-03-01T06:42:33;12.20;;;7.78;;
69305;SDS011;56427;51.580;4.656;2023-03-01T06:44:59;14.23;;;8.40;;
69305;SDS011;56427;51.580;4.656;2023-03-01T06:47:25;15.38;;;8.02;;
69305;SDS011;56427;51.580;4.656;2023-03-01T06:49:50;15.67;;;7.77;;
69305;SDS011;56427;51.580;4.656;2023-03-01T06:52:15;11.53;;;6.80;;
69305;SDS011;56427;51.580;4.656;2023-03-01T06:54:41;14.47;;;7.40;;
69305;SDS011;56427;51.580;4.656;2023-03-01T06:57:06;13.07;;;7.67;;
69305;SDS011;56427;51.580;4.656;2023-03-01T06:59:31;14.80;;;8.30;;
69305;SDS011;56427;51.580;4.656;2023-03-01T07:01:57;13.07;;;7.23;;
69305;SDS011;56427;51.580;4.656;2023-03-01T07:04:22;13.77;;;7.33;;
69305;SDS011;56427;51.580;4.656;2023-03-01T07:06:47;11.43;;;6.88;;
69305;SDS011;56427;51.580;4.656;2023-03-01T07:09:20;13.10;;;7.07;;
69305;SDS011;56427;51.580;4.656;2023-03-01T07:11:47;9.65;;;6.35;;
69305;SDS011;56427;51.580;4.656;2023-03-01T07:14:12;13.75;;;7.80;;
69305;SDS011;56427;51.580;4.656;2023-03-01T07:16:38;14.03;;;7.63;;
69305;SDS011;56427;51.580;4.656;2023-03-01T07:19:03;15.00;;;7.43;;
69305;SDS011;56427;51.580;4.656;2023-03-01T07:21:30;11.65;;;7.28;;
69305;SDS011;56427;51.580;4.656;2023-03-01T07:23:55;14.77;;;7.40;;
69305;SDS011;56427;51.580;4.656;2023-03-01T07:26:21;14.13;;;6.90;;
69305;SDS011;56427;51.580;4.656;2023-03-01T07:28:46;13.93;;;7.10;;
69305;SDS011;56427;51.580;4.656;2023-03-01T07:31:11;15.03;;;7.53;;
69305;SDS011;56427;51.580;4.656;2023-03-01T07:33:37;11.38;;;7.63;;
69305;SDS011;56427;51.580;4.656;2023-03-01T07:36:02;10.55;;;6.47;;
69305;SDS011;56427;51.580;4.656;2023-03-01T07:38:29;11.10;;;6.33;;
69305;SDS011;56427;51.580;4.656;2023-03-01T07:40:58;11.32;;;6.75;;
69305;SDS011;56427;51.580;4.656;2023-03-01T07:43:25;13.10;;;7.22;;
69305;SDS011;56427;51.580;4.656;2023-03-01T07:45:51;9.15;;;5.43;;
69305;SDS011;56427;51.580;4.656;2023-03-01T07:48:16;13.37;;;6.90;;
69305;SDS011;56427;51.580;4.656;2023-03-01T07:50:42;13.80;;;6.57;;
69305;SDS011;56427;51.580;4.656;2023-03-01T07:53:08;13.40;;;7.00;;
69305;SDS011;56427;51.580;4.656;2023-03-01T07:55:34;9.88;;;6.20;;
69305;SDS011;56427;51.580;4.656;2023-03-01T07:57:59;11.93;;;6.83;;
69305;SDS011;56427;51.580;4.656;2023-03-01T08:00:24;10.57;;;6.50;;
69305;SDS011;56427;51.580;4.656;2023-03-01T08:02:50;9.68;;;6.40;;
69305;SDS011;56427;51.580;4.656;2023-03-01T08:05:15;11.33;;;6.97;;
69305;SDS011;56427;51.580;4.656;2023-03-01T08:07:41;14.10;;;6.77;;
69305;SDS011;56427;51.580;4.656;2023-03-01T08:10:06;10.80;;;6.45;;
69305;SDS011;56427;51.580;4.656;2023-03-01T08:12:32;9.05;;;5.50;;
69305;SDS011;56427;51.580;4.656;2023-03-01T08:14:57;10.40;;;6.80;;
69305;SDS011;56427;51.580;4.656;2023-03-01T08:17:23;10.50;;;6.13;;
69305;SDS011;56427;51.580;4.656;2023-03-01T08:19:48;10.10;;;6.43;;
69305;SDS011;56427;51.580;4.656;2023-03-01T08:22:14;10.43;;;6.43;;
69305;SDS011;56427;51.580;4.656;2023-03-01T08:24:39;11.50;;;6.80;;
69305;SDS011;56427;51.580;4.656;2023-03-01T08:27:05;12.77;;;7.10;;
69305;SDS011;56427;51.580;4.656;2023-03-01T08:29:31;12.10;;;7.05;;
69305;SDS011;56427;51.580;4.656;2023-03-01T08:31:57;14.98;;;7.20;;
69305;SDS011;56427;51.580;4.656;2023-03-01T08:34:22;12.63;;;6.87;;
69305;SDS011;56427;51.580;4.656;2023-03-01T08:36:48;11.00;;;5.70;;
69305;SDS011;56427;51.580;4.656;2023-03-01T08:39:15;10.50;;;6.30;;
69305;SDS011;56427;51.580;4.656;2023-03-01T08:41:42;10.13;;;5.95;;
69305;SDS011;56427;51.580;4.656;2023-03-01T08:44:07;11.50;;;6.40;;
69305;SDS011;56427;51.580;4.656;2023-03-01T08:46:35;11.48;;;6.30;;
69305;SDS011;56427;51.580;4.656;2023-03-01T08:49:09;10.70;;;5.53;;
69305;SDS011;56427;51.580;4.656;2023-03-01T08:51:37;11.07;;;6.25;;
69305;SDS011;56427;51.580;4.656;2023-03-01T08:54:03;9.67;;;6.00;;
69305;SDS011;56427;51.580;4.656;2023-03-01T08:56:30;10.05;;;5.40;;
69305;SDS011;56427;51.580;4.656;2023-03-01T08:58:56;10.40;;;5.22;;
69305;SDS011;56427;51.580;4.656;2023-03-01T09:01:21;10.32;;;5.65;;
69305;SDS011;56427;51.580;4.656;2023-03-01T09:03:46;10.57;;;5.60;;
69305;SDS011;56427;51.580;4.656;2023-03-01T09:06:12;6.57;;;3.77;;
69305;SDS011;56427;51.580;4.656;2023-03-01T09:08:39;9.95;;;5.45;;
69305;SDS011;56427;51.580;4.656;2023-03-01T09:11:07;9.80;;;5.57;;
69305;SDS011;56427;51.580;4.656;2023-03-01T09:13:34;9.70;;;5.57;;
69305;SDS011;56427;51.580;4.656;2023-03-01T09:16:01;10.88;;;5.05;;
69305;SDS011;56427;51.580;4.656;2023-03-01T09:18:28;10.15;;;5.10;;
69305;SDS011;56427;51.580;4.656;2023-03-01T09:21:00;8.15;;;4.50;;
69305;SDS011;56427;51.580;4.656;2023-03-01T09:23:32;12.45;;;5.63;;
69305;SDS011;56427;51.580;4.656;2023-03-01T09:25:59;10.00;;;6.17;;
69305;SDS011;56427;51.580;4.656;2023-03-01T09:28:30;8.27;;;4.90;;
69305;SDS011;56427;51.580;4.656;2023-03-01T09:30:59;10.55;;;4.90;;
69305;SDS011;56427;51.580;4.656;2023-03-01T09:33:26;8.70;;;5.63;;
69305;SDS011;56427;51.580;4.656;2023-03-01T09:35:56;11.17;;;6.03;;
69305;SDS011;56427;51.580;4.656;2023-03-01T09:38:26;8.05;;;4.65;;
69305;SDS011;56427;51.580;4.656;2023-03-01T09:40:52;9.55;;;5.40;;
69305;SDS011;56427;51.580;4.656;2023-03-01T09:45:48;9.88;;;5.97;;
69305;SDS011;56427;51.580;4.656;2023-03-01T09:48:18;11.93;;;6.25;;
69305;SDS011;56427;51.580;4.656;2023-03-01T09:50:47;9.18;;;5.18;;
69305;SDS011;56427;51.580;4.656;2023-03-01T09:53:13;8.63;;;4.05;;
69305;SDS011;56427;51.580;4.656;2023-03-01T09:55:43;8.07;;;5.03;;
69305;SDS011;56427;51.580;4.656;2023-03-01T10:01:29;7.57;;;5.18;;
69305;SDS011;56427;51.580;4.656;2023-03-01T10:04:04;8.60;;;4.60;;
69305;SDS011;56427;51.580;4.656;2023-03-01T10:07:07;8.07;;;4.40;;
69305;SDS011;56427;51.580;4.656;2023-03-01T10:09:45;10.50;;;4.95;;
69305;SDS011;56427;51.580;4.656;2023-03-01T10:12:22;7.18;;;4.32;;
69305;SDS011;56427;51.580;4.656;2023-03-01T10:14:57;8.30;;;4.47;;
69305;SDS011;56427;51.580;4.656;2023-03-01T10:20:33;6.97;;;4.07;;
69305;SDS011;56427;51.580;4.656;2023-03-01T10:23:08;8.38;;;4.45;;
69305;SDS011;56427;51.580;4.656;2023-03-01T10:28:26;8.10;;;4.07;;
69305;SDS011;56427;51.580;4.656;2023-03-01T10:30:57;7.75;;;4.68;;
69305;SDS011;56427;51.580;4.656;2023-03-01T10:33:27;7.18;;;3.30;;
69305;SDS011;56427;51.580;4.656;2023-03-01T10:35:56;6.50;;;3.58;;
69305;SDS011;56427;51.580;4.656;2023-03-01T10:38:21;7.28;;;4.05;;
69305;SDS011;56427;51.580;4.656;2023-03-01T10:40:51;8.57;;;3.90;;
69305;SDS011;56427;51.580;4.656;2023-03-01T10:43:47;8.10;;;3.88;;
69305;SDS011;56427;51.580;4.656;2023-03-01T10:46:34;6.50;;;3.22;;
69305;SDS011;56427;51.580;4.656;2023-03-01T10:49:10;7.80;;;3.97;;
69305;SDS011;56427;51.580;4.656;2023-03-01T10:51:40;9.70;;;3.55;;
69305;SDS011;56427;51.580;4.656;2023-03-01T10:54:15;10.95;;;4.20;;
69305;SDS011;56427;51.580;4.656;2023-03-01T10:56:47;7.80;;;3.75;;
69305;SDS011;56427;51.580;4.656;2023-03-01T10:59:42;6.15;;;2.95;;
69305;SDS011;56427;51.580;4.656;2023-03-01T11:04:35;9.70;;;3.95;;
69305;SDS011;56427;51.580;4.656;2023-03-01T11:07:00;6.90;;;3.35;;
69305;SDS011;56427;51.580;4.656;2023-03-01T11:09:30;5.57;;;3.60;;
69305;SDS011;56427;51.580;4.656;2023-03-01T11:12:02;6.93;;;3.58;;
69305;SDS011;56427;51.580;4.656;2023-03-01T11:14:33;6.63;;;2.90;;
69305;SDS011;56427;51.580;4.656;2023-03-01T11:17:21;6.13;;;3.05;;
69305;SDS011;56427;51.580;4.656;2023-03-01T11:22:45;9.43;;;3.65;;
69305;SDS011;56427;51.580;4.656;2023-03-01T11:25:15;5.50;;;3.35;;
69305;SDS011;56427;51.580;4.656;2023-03-01T11:27:43;5.30;;;3.03;;
69305;SDS011;56427;51.580;4.656;2023-03-01T11:30:24;7.15;;;3.33;;
69305;SDS011;56427;51.580;4.656;2023-03-01T11:32:57;7.47;;;3.60;;
69305;SDS011;56427;51.580;4.656;2023-03-01T11:35:31;9.82;;;4.30;;
69305;SDS011;56427;51.580;4.656;2023-03-01T11:40:42;8.35;;;3.40;;
69305;SDS011;56427;51.580;4.656;2023-03-01T11:43:20;8.85;;;4.18;;
69305;SDS011;56427;51.580;4.656;2023-03-01T11:45:58;6.93;;;3.42;;
69305;SDS011;56427;51.580;4.656;2023-03-01T11:48:49;6.93;;;3.40;;
69305;SDS011;56427;51.580;4.656;2023-03-01T11:56:55;6.88;;;3.72;;
69305;SDS011;56427;51.580;4.656;2023-03-01T12:16:24;9.05;;;4.88;;
69305;SDS011;56427;51.580;4.656;2023-03-01T12:46:47;7.68;;;4.72;;
69305;SDS011;56427;51.580;4.656;2023-03-01T12:49:28;9.88;;;4.40;;
69305;SDS011;56427;51.580;4.656;2023-03-01T12:52:00;7.75;;;4.47;;
69305;SDS011;56427;51.580;4.656;2023-03-01T12:54:35;9.95;;;5.25;;
69305;SDS011;56427;51.580;4.656;2023-03-01T13:00:09;8.85;;;4.78;;
69305;SDS011;56427;51.580;4.656;2023-03-01T13:02:47;7.13;;;4.32;;
69305;SDS011;56427;51.580;4.656;2023-03-01T13:05:27;8.52;;;3.92;;
69305;SDS011;56427;51.580;4.656;2023-03-01T13:08:08;13.05;;;4.80;;
69305;SDS011;56427;51.580;4.656;2023-03-01T13:10:52;10.60;;;4.78;;
69305;SDS011;56427;51.580;4.656;2023-03-01T13:13:25;10.40;;;4.93;;
69305;SDS011;56427;51.580;4.656;2023-03-01T13:15:52;9.15;;;4.55;;
69305;SDS011;56427;51.580;4.656;2023-03-01T13:20:53;8.25;;;4.60;;
69305;SDS011;56427;51.580;4.656;2023-03-01T13:26:00;9.35;;;5.07;;
69305;SDS011;56427;51.580;4.656;2023-03-01T13:30:59;7.70;;;5.25;;
69305;SDS011;56427;51.580;4.656;2023-03-01T13:35:52;8.47;;;4.97;;
69305;SDS011;56427;51.580;4.656;2023-03-01T13:44:19;9.68;;;4.45;;
69305;SDS011;56427;51.580;4.656;2023-03-01T13:46:45;10.93;;;4.57;;
69305;SDS011;56427;51.580;4.656;2023-03-01T13:49:19;7.35;;;4.10;;
69305;SDS011;56427;51.580;4.656;2023-03-01T13:51:47;8.95;;;5.00;;
69305;SDS011;56427;51.580;4.656;2023-03-01T13:54:18;17.58;;;4.32;;
69305;SDS011;56427;51.580;4.656;2023-03-01T13:56:54;7.65;;;4.18;;
69305;SDS011;56427;51.580;4.656;2023-03-01T13:59:21;7.77;;;4.30;;
69305;SDS011;56427;51.580;4.656;2023-03-01T14:01:55;8.75;;;4.78;;
69305;SDS011;56427;51.580;4.656;2023-03-01T14:04:24;7.22;;;4.45;;
69305;SDS011;56427;51.580;4.656;2023-03-01T14:06:52;10.70;;;4.75;;
69305;SDS011;56427;51.580;4.656;2023-03-01T14:09:33;8.43;;;5.07;;
69305;SDS011;56427;51.580;4.656;2023-03-01T14:14:55;8.93;;;4.55;;
69305;SDS011;56427;51.580;4.656;2023-03-01T14:19:57;9.52;;;4.18;;
69305;SDS011;56427;51.580;4.656;2023-03-01T14:22:25;6.97;;;4.00;;
69305;SDS011;56427;51.580;4.656;2023-03-01T14:24:57;8.70;;;4.83;;
69305;SDS011;56427;51.580;4.656;2023-03-01T14:27:26;7.72;;;4.35;;
69305;SDS011;56427;51.580;4.656;2023-03-01T14:29:56;8.93;;;4.80;;
69305;SDS011;56427;51.580;4.656;2023-03-01T14:32:25;9.23;;;4.57;;
69305;SDS011;56427;51.580;4.656;2023-03-01T14:34:52;10.45;;;4.75;;
69305;SDS011;56427;51.580;4.656;2023-03-01T14:39:46;9.90;;;5.03;;
69305;SDS011;56427;51.580;4.656;2023-03-01T14:42:12;9.00;;;4.83;;
69305;SDS011;56427;51.580;4.656;2023-03-01T14:44:40;8.30;;;3.90;;
69305;SDS011;56427;51.580;4.656;2023-03-01T14:47:10;7.45;;;4.88;;
69305;SDS011;56427;51.580;4.656;2023-03-01T14:49:39;8.85;;;4.25;;
69305;SDS011;56427;51.580;4.656;2023-03-01T14:52:07;9.20;;;5.00;;
69305;SDS011;56427;51.580;4.656;2023-03-01T14:54:46;13.65;;;5.25;;
69305;SDS011;56427;51.580;4.656;2023-03-01T14:57:15;8.65;;;5.25;;
69305;SDS011;56427;51.580;4.656;2023-03-01T14:59:49;9.45;;;4.82;;
69305;SDS011;56427;51.580;4.656;2023-03-01T15:02:19;8.60;;;4.45;;
69305;SDS011;56427;51.580;4.656;2023-03-01T15:04:57;7.65;;;4.40;;
69305;SDS011;56427;51.580;4.656;2023-03-01T15:07:27;6.57;;;3.60;;
69305;SDS011;56427;51.580;4.656;2023-03-01T15:09:56;8.20;;;4.47;;
69305;SDS011;56427;51.580;4.656;2023-03-01T15:15:08;8.40;;;4.55;;
69305;SDS011;56427;51.580;4.656;2023-03-01T15:17:48;9.02;;;4.63;;
69305;SDS011;56427;51.580;4.656;2023-03-01T15:20:18;8.07;;;4.78;;
69305;SDS011;56427;51.580;4.656;2023-03-01T15:22:47;8.80;;;4.88;;
69305;SDS011;56427;51.580;4.656;2023-03-01T15:25:21;9.48;;;4.78;;
69305;SDS011;56427;51.580;4.656;2023-03-01T15:27:49;9.70;;;4.50;;
69305;SDS011;56427;51.580;4.656;2023-03-01T15:30:26;7.22;;;4.28;;
69305;SDS011;56427;51.580;4.656;2023-03-01T15:35:49;6.43;;;3.45;;
69305;SDS011;56427;51.580;4.656;2023-03-01T15:41:23;6.90;;;4.10;;
69305;SDS011;56427;51.580;4.656;2023-03-01T15:44:16;7.10;;;3.85;;
69305;SDS011;56427;51.580;4.656;2023-03-01T15:46:45;12.48;;;3.92;;
69305;SDS011;56427;51.580;4.656;2023-03-01T15:51:53;8.23;;;4.50;;
69305;SDS011;56427;51.580;4.656;2023-03-01T15:54:21;7.15;;;4.63;;
69305;SDS011;56427;51.580;4.656;2023-03-01T15:56:49;7.25;;;3.70;;
69305;SDS011;56427;51.580;4.656;2023-03-01T15:59:15;7.32;;;3.78;;
69305;SDS011;56427;51.580;4.656;2023-03-01T16:01:42;6.43;;;4.10;;
69305;SDS011;56427;51.580;4.656;2023-03-01T16:04:11;8.35;;;4.40;;
69305;SDS011;56427;51.580;4.656;2023-03-01T16:06:45;8.30;;;3.97;;
69305;SDS011;56427;51.580;4.656;2023-03-01T16:09:12;10.68;;;5.80;;
69305;SDS011;56427;51.580;4.656;2023-03-01T16:11:37;8.93;;;4.30;;
69305;SDS011;56427;51.580;4.656;2023-03-01T16:14:04;6.05;;;4.35;;
69305;SDS011;56427;51.580;4.656;2023-03-01T16:16:30;8.80;;;4.50;;
69305;SDS011;56427;51.580;4.656;2023-03-01T16:18:55;7.27;;;4.43;;
69305;SDS011;56427;51.580;4.656;2023-03-01T16:21:24;10.07;;;5.15;;
69305;SDS011;56427;51.580;4.656;2023-03-01T16:23:50;7.35;;;4.45;;
69305;SDS011;56427;51.580;4.656;2023-03-01T16:26:16;7.45;;;4.10;;
69305;SDS011;56427;51.580;4.656;2023-03-01T16:28:42;6.57;;;4.25;;
69305;SDS011;56427;51.580;4.656;2023-03-01T16:31:08;9.77;;;4.38;;
69305;SDS011;56427;51.580;4.656;2023-03-01T16:33:34;8.20;;;4.20;;
69305;SDS011;56427;51.580;4.656;2023-03-01T16:36:05;7.20;;;4.20;;
69305;SDS011;56427;51.580;4.656;2023-03-01T16:38:32;12.27;;;3.45;;
69305;SDS011;56427;51.580;4.656;2023-03-01T16:41:00;11.23;;;4.90;;
69305;SDS011;56427;51.580;4.656;2023-03-01T16:43:26;9.27;;;4.77;;
69305;SDS011;56427;51.580;4.656;2023-03-01T16:45:58;6.53;;;4.43;;